sensor_id;sensor_type;location;lat;lon;timestamp;P1;durP1;ratioP1;P2;durP2;ratioP2
29916;SDS011;16786;49.466;11.068;2024-02-23T00:02:14;2.10;;;1.17;;
29916;SDS011;16786;49.466;11.068;2024-02-23T00:04:41;1.20;;;1.10;;
29916;SDS011;16786;49.466;11.068;2024-02-23T00:07:08;2.45;;;1.25;;
29916;SDS011;16786;49.466;11.068;2024-02-23T00:09:35;1.30;;;1.20;;
29916;SDS011;16786;49.466;11.068;2024-02-23T00:12:03;4.25;;;1.38;;
29916;SDS011;16786;49.466;11.068;2024-02-23T00:14:30;1.40;;;1.25;;
29916;SDS011;16786;49.466;11.068;2024-02-23T00:16:57;1.42;;;1.20;;
29916;SDS011;16786;49.466;11.068;2024-02-23T00:19:25;2.63;;;1.20;;
29916;SDS011;16786;49.466;11.068;2024-02-23T00:21:52;1.95;;;1.10;;
29916;SDS011;16786;49.466;11.068;2024-02-23T00:24:19;2.55;;;1.23;;
29916;SDS011;16786;49.466;11.068;2024-02-23T00:26:48;1.58;;;1.10;;
29916;SDS011;16786;49.466;11.068;2024-02-23T00:29:15;2.25;;;1.20;;
29916;SDS011;16786;49.466;11.068;2024-02-23T00:31:42;1.25;;;1.10;;
29916;SDS011;16786;49.466;11.068;2024-02-23T00:34:11;1.70;;;1.27;;
29916;SDS011;16786;49.466;11.068;2024-02-23T00:36:40;1.38;;;1.10;;
29916;SDS011;16786;49.466;11.068;2024-02-23T00:39:08;2.00;;;1.30;;
29916;SDS011;16786;49.466;11.068;2024-02-23T00:41:35;1.30;;;1.20;;
29916;SDS011;16786;49.466;11.068;2024-02-23T00:44:02;1.20;;;1.10;;
29916;SDS011;16786;49.466;11.068;2024-02-23T00:46:30;1.23;;;1.13;;
29916;SDS011;16786;49.466;11.068;2024-02-23T00:48:57;1.95;;;1.45;;
29916;SDS011;16786;49.466;11.068;2024-02-23T00:51:24;1.30;;;1.20;;
29916;SDS011;16786;49.466;11.068;2024-02-23T00:53:51;1.50;;;1.20;;
29916;SDS011;16786;49.466;11.068;2024-02-23T00:56:18;1.52;;;1.20;;
29916;SDS011;16786;49.466;11.068;2024-02-23T00:58:48;1.35;;;1.20;;
29916;SDS011;16786;49.466;11.068;2024-02-23T01:01:15;2.45;;;1.40;;
29916;SDS011;16786;49.466;11.068;2024-02-23T01:03:42;2.05;;;1.25;;
29916;SDS011;16786;49.466;11.068;2024-02-23T01:06:09;1.42;;;1.30;;
29916;SDS011;16786;49.466;11.068;2024-02-23T01:08:36;1.90;;;1.50;;
29916;SDS011;16786;49.466;11.068;2024-02-23T01:11:03;1.50;;;1.40;;
29916;SDS011;16786;49.466;11.068;2024-02-23T01:13:30;2.95;;;1.48;;
29916;SDS011;16786;49.466;11.068;2024-02-23T01:15:57;1.45;;;1.35;;
29916;SDS011;16786;49.466;11.068;2024-02-23T01:18:24;1.50;;;1.40;;
29916;SDS011;16786;49.466;11.068;2024-02-23T01:20:51;1.65;;;1.40;;
29916;SDS011;16786;49.466;11.068;2024-02-23T01:23:18;1.42;;;1.30;;
29916;SDS011;16786;49.466;11.068;2024-02-23T01:25:45;1.95;;;1.30;;
29916;SDS011;16786;49.466;11.068;2024-02-23T01:28:12;2.08;;;1.60;;
29916;SDS011;16786;49.466;11.068;2024-02-23T01:30:39;2.67;;;1.30;;
29916;SDS011;16786;49.466;11.068;2024-02-23T01:33:06;1.98;;;1.50;;
29916;SDS011;16786;49.466;11.068;2024-02-23T01:35:33;2.92;;;1.60;;
29916;SDS011;16786;49.466;11.068;2024-02-23T01:38:00;1.95;;;1.48;;
29916;SDS011;16786;49.466;11.068;2024-02-23T01:40:28;1.67;;;1.40;;
29916;SDS011;16786;49.466;11.068;2024-02-23T01:43:04;3.47;;;1.50;;
29916;SDS011;16786;49.466;11.068;2024-02-23T01:45:31;2.67;;;1.45;;
29916;SDS011;16786;49.466;11.068;2024-02-23T01:47:59;2.72;;;1.50;;
29916;SDS011;16786;49.466;11.068;2024-02-23T01:50:27;2.60;;;1.50;;
29916;SDS011;16786;49.466;11.068;2024-02-23T01:52:55;1.90;;;1.50;;
29916;SDS011;16786;49.466;11.068;2024-02-23T01:55:25;2.00;;;1.40;;
29916;SDS011;16786;49.466;11.068;2024-02-23T01:57:52;3.65;;;1.63;;
29916;SDS011;16786;49.466;11.068;2024-02-23T02:00:20;2.30;;;1.50;;
29916;SDS011;16786;49.466;11.068;2024-02-23T02:02:53;1.55;;;1.40;;
29916;SDS011;16786;49.466;11.068;2024-02-23T02:05:21;3.22;;;1.50;;
29916;SDS011;16786;49.466;11.068;2024-02-23T02:07:49;3.92;;;1.55;;
29916;SDS011;16786;49.466;11.068;2024-02-23T02:10:20;2.50;;;1.40;;
29916;SDS011;16786;49.466;11.068;2024-02-23T02:12:48;2.58;;;1.38;;
29916;SDS011;16786;49.466;11.068;2024-02-23T02:15:15;2.55;;;1.45;;
29916;SDS011;16786;49.466;11.068;2024-02-23T02:17:42;4.47;;;1.55;;
29916;SDS011;16786;49.466;11.068;2024-02-23T02:20:11;4.00;;;1.88;;
29916;SDS011;16786;49.466;11.068;2024-02-23T02:22:39;3.92;;;1.50;;
29916;SDS011;16786;49.466;11.068;2024-02-23T02:25:06;1.85;;;1.60;;
29916;SDS011;16786;49.466;11.068;2024-02-23T02:27:34;1.40;;;1.30;;
29916;SDS011;16786;49.466;11.068;2024-02-23T02:30:00;2.25;;;1.40;;
29916;SDS011;16786;49.466;11.068;2024-02-23T02:32:27;4.22;;;1.40;;
29916;SDS011;16786;49.466;11.068;2024-02-23T02:34:57;1.40;;;1.30;;
29916;SDS011;16786;49.466;11.068;2024-02-23T02:37:24;2.92;;;1.50;;
29916;SDS011;16786;49.466;11.068;2024-02-23T02:39:51;3.58;;;1.23;;
29916;SDS011;16786;49.466;11.068;2024-02-23T02:42:18;1.70;;;1.40;;
29916;SDS011;16786;49.466;11.068;2024-02-23T02:44:45;1.67;;;1.23;;
29916;SDS011;16786;49.466;11.068;2024-02-23T02:47:12;2.70;;;1.60;;
29916;SDS011;16786;49.466;11.068;2024-02-23T02:49:39;3.00;;;1.33;;
29916;SDS011;16786;49.466;11.068;2024-02-23T02:52:06;2.67;;;1.40;;
29916;SDS011;16786;49.466;11.068;2024-02-23T02:54:34;5.18;;;1.45;;
29916;SDS011;16786;49.466;11.068;2024-02-23T02:57:01;2.38;;;1.30;;
29916;SDS011;16786;49.466;11.068;2024-02-23T02:59:28;4.75;;;1.42;;
29916;SDS011;16786;49.466;11.068;2024-02-23T03:01:55;3.40;;;1.52;;
29916;SDS011;16786;49.466;11.068;2024-02-23T03:04:23;2.85;;;1.38;;
29916;SDS011;16786;49.466;11.068;2024-02-23T03:06:50;4.53;;;1.50;;
29916;SDS011;16786;49.466;11.068;2024-02-23T03:09:17;4.93;;;1.52;;
29916;SDS011;16786;49.466;11.068;2024-02-23T03:11:44;2.55;;;1.50;;
29916;SDS011;16786;49.466;11.068;2024-02-23T03:14:11;2.47;;;1.35;;
29916;SDS011;16786;49.466;11.068;2024-02-23T03:16:39;2.55;;;1.40;;
29916;SDS011;16786;49.466;11.068;2024-02-23T03:19:05;2.70;;;1.50;;
29916;SDS011;16786;49.466;11.068;2024-02-23T03:21:34;5.57;;;1.60;;
29916;SDS011;16786;49.466;11.068;2024-02-23T03:24:05;7.40;;;1.90;;
29916;SDS011;16786;49.466;11.068;2024-02-23T03:26:33;3.40;;;1.65;;
29916;SDS011;16786;49.466;11.068;2024-02-23T03:29:00;3.75;;;1.65;;
29916;SDS011;16786;49.466;11.068;2024-02-23T03:31:27;4.82;;;1.70;;
29916;SDS011;16786;49.466;11.068;2024-02-23T03:33:54;4.50;;;1.70;;
29916;SDS011;16786;49.466;11.068;2024-02-23T03:36:21;4.15;;;1.70;;
29916;SDS011;16786;49.466;11.068;2024-02-23T03:38:48;4.57;;;1.73;;
29916;SDS011;16786;49.466;11.068;2024-02-23T03:41:15;2.75;;;1.83;;
29916;SDS011;16786;49.466;11.068;2024-02-23T03:43:42;8.48;;;2.42;;
29916;SDS011;16786;49.466;11.068;2024-02-23T03:46:09;5.20;;;1.70;;
29916;SDS011;16786;49.466;11.068;2024-02-23T03:48:35;4.35;;;1.67;;
29916;SDS011;16786;49.466;11.068;2024-02-23T03:51:06;6.40;;;2.00;;
29916;SDS011;16786;49.466;11.068;2024-02-23T03:53:34;4.18;;;1.70;;
29916;SDS011;16786;49.466;11.068;2024-02-23T03:56:01;5.00;;;1.60;;
29916;SDS011;16786;49.466;11.068;2024-02-23T03:58:28;3.78;;;1.80;;
29916;SDS011;16786;49.466;11.068;2024-02-23T04:00:55;4.45;;;1.95;;
29916;SDS011;16786;49.466;11.068;2024-02-23T04:03:22;4.95;;;1.90;;
29916;SDS011;16786;49.466;11.068;2024-02-23T04:05:49;6.70;;;1.90;;
29916;SDS011;16786;49.466;11.068;2024-02-23T04:08:16;3.35;;;1.77;;
29916;SDS011;16786;49.466;11.068;2024-02-23T04:10:43;4.25;;;1.85;;
29916;SDS011;16786;49.466;11.068;2024-02-23T04:13:10;4.55;;;1.67;;
29916;SDS011;16786;49.466;11.068;2024-02-23T04:15:40;9.02;;;2.15;;
29916;SDS011;16786;49.466;11.068;2024-02-23T04:18:07;4.85;;;1.70;;
29916;SDS011;16786;49.466;11.068;2024-02-23T04:20:34;7.30;;;1.85;;
29916;SDS011;16786;49.466;11.068;2024-02-23T04:23:01;4.15;;;2.15;;
29916;SDS011;16786;49.466;11.068;2024-02-23T04:25:28;5.05;;;1.90;;
29916;SDS011;16786;49.466;11.068;2024-02-23T04:27:55;3.92;;;1.80;;
29916;SDS011;16786;49.466;11.068;2024-02-23T04:30:21;3.85;;;1.80;;
29916;SDS011;16786;49.466;11.068;2024-02-23T04:32:48;6.05;;;1.70;;
29916;SDS011;16786;49.466;11.068;2024-02-23T04:35:15;4.53;;;1.90;;
29916;SDS011;16786;49.466;11.068;2024-02-23T04:37:45;4.57;;;1.60;;
29916;SDS011;16786;49.466;11.068;2024-02-23T04:40:12;6.25;;;1.73;;
29916;SDS011;16786;49.466;11.068;2024-02-23T04:42:39;7.80;;;2.17;;
29916;SDS011;16786;49.466;11.068;2024-02-23T04:45:06;5.47;;;2.08;;
29916;SDS011;16786;49.466;11.068;2024-02-23T04:47:33;8.45;;;1.98;;
29916;SDS011;16786;49.466;11.068;2024-02-23T04:50:00;4.80;;;2.10;;
29916;SDS011;16786;49.466;11.068;2024-02-23T04:52:29;3.05;;;1.80;;
29916;SDS011;16786;49.466;11.068;2024-02-23T04:54:56;5.60;;;1.95;;
29916;SDS011;16786;49.466;11.068;2024-02-23T04:57:23;5.88;;;1.88;;
29916;SDS011;16786;49.466;11.068;2024-02-23T04:59:50;5.50;;;2.10;;
29916;SDS011;16786;49.466;11.068;2024-02-23T05:02:17;8.50;;;2.10;;
29916;SDS011;16786;49.466;11.068;2024-02-23T05:04:44;5.55;;;2.00;;
29916;SDS011;16786;49.466;11.068;2024-02-23T05:07:12;4.45;;;2.42;;
29916;SDS011;16786;49.466;11.068;2024-02-23T05:09:39;5.40;;;2.20;;
29916;SDS011;16786;49.466;11.068;2024-02-23T05:12:09;7.28;;;2.25;;
29916;SDS011;16786;49.466;11.068;2024-02-23T05:14:36;4.38;;;1.80;;
29916;SDS011;16786;49.466;11.068;2024-02-23T05:17:04;8.90;;;2.30;;
29916;SDS011;16786;49.466;11.068;2024-02-23T05:19:31;7.75;;;2.08;;
29916;SDS011;16786;49.466;11.068;2024-02-23T05:21:57;9.20;;;2.38;;
29916;SDS011;16786;49.466;11.068;2024-02-23T05:24:24;6.45;;;1.98;;
29916;SDS011;16786;49.466;11.068;2024-02-23T05:26:52;4.20;;;1.95;;
29916;SDS011;16786;49.466;11.068;2024-02-23T05:29:19;4.60;;;2.20;;
29916;SDS011;16786;49.466;11.068;2024-02-23T05:31:52;6.18;;;2.00;;
29916;SDS011;16786;49.466;11.068;2024-02-23T05:34:19;6.07;;;1.90;;
29916;SDS011;16786;49.466;11.068;2024-02-23T05:36:47;5.28;;;2.00;;
29916;SDS011;16786;49.466;11.068;2024-02-23T05:39:14;3.45;;;1.90;;
29916;SDS011;16786;49.466;11.068;2024-02-23T05:41:44;3.35;;;1.92;;
29916;SDS011;16786;49.466;11.068;2024-02-23T05:44:11;6.22;;;2.00;;
29916;SDS011;16786;49.466;11.068;2024-02-23T05:46:40;4.50;;;2.10;;
29916;SDS011;16786;49.466;11.068;2024-02-23T05:49:08;7.05;;;2.28;;
29916;SDS011;16786;49.466;11.068;2024-02-23T05:51:36;6.47;;;2.13;;
29916;SDS011;16786;49.466;11.068;2024-02-23T05:54:03;4.57;;;2.13;;
29916;SDS011;16786;49.466;11.068;2024-02-23T05:56:30;10.88;;;2.10;;
29916;SDS011;16786;49.466;11.068;2024-02-23T05:58:57;4.15;;;2.00;;
29916;SDS011;16786;49.466;11.068;2024-02-23T06:01:24;6.03;;;1.90;;
29916;SDS011;16786;49.466;11.068;2024-02-23T06:03:51;2.78;;;1.90;;
29916;SDS011;16786;49.466;11.068;2024-02-23T06:06:19;5.18;;;2.17;;
29916;SDS011;16786;49.466;11.068;2024-02-23T06:08:47;5.93;;;2.13;;
29916;SDS011;16786;49.466;11.068;2024-02-23T06:11:15;4.43;;;2.03;;
29916;SDS011;16786;49.466;11.068;2024-02-23T06:13:43;3.80;;;2.15;;
29916;SDS011;16786;49.466;11.068;2024-02-23T06:16:10;5.93;;;2.25;;
29916;SDS011;16786;49.466;11.068;2024-02-23T06:18:38;6.30;;;2.10;;
29916;SDS011;16786;49.466;11.068;2024-02-23T06:21:10;4.10;;;2.10;;
29916;SDS011;16786;49.466;11.068;2024-02-23T06:23:39;6.25;;;2.40;;
29916;SDS011;16786;49.466;11.068;2024-02-23T06:26:06;4.55;;;2.38;;
29916;SDS011;16786;49.466;11.068;2024-02-23T06:28:33;8.82;;;2.35;;
29916;SDS011;16786;49.466;11.068;2024-02-23T06:31:01;4.85;;;2.22;;
29916;SDS011;16786;49.466;11.068;2024-02-23T06:33:30;3.40;;;2.33;;
29916;SDS011;16786;49.466;11.068;2024-02-23T06:35:57;4.38;;;2.17;;
29916;SDS011;16786;49.466;11.068;2024-02-23T06:38:24;6.65;;;2.03;;
29916;SDS011;16786;49.466;11.068;2024-02-23T06:40:51;7.88;;;2.22;;
29916;SDS011;16786;49.466;11.068;2024-02-23T06:43:18;4.80;;;2.30;;
29916;SDS011;16786;49.466;11.068;2024-02-23T06:45:49;7.55;;;2.70;;
29916;SDS011;16786;49.466;11.068;2024-02-23T06:48:16;4.60;;;2.05;;
29916;SDS011;16786;49.466;11.068;2024-02-23T06:50:43;8.52;;;2.25;;
29916;SDS011;16786;49.466;11.068;2024-02-23T06:53:10;4.97;;;1.95;;
29916;SDS011;16786;49.466;11.068;2024-02-23T06:55:37;5.28;;;2.35;;
29916;SDS011;16786;49.466;11.068;2024-02-23T06:58:04;9.60;;;2.45;;
29916;SDS011;16786;49.466;11.068;2024-02-23T07:00:32;6.15;;;2.33;;
29916;SDS011;16786;49.466;11.068;2024-02-23T07:02:59;4.43;;;2.15;;
29916;SDS011;16786;49.466;11.068;2024-02-23T07:05:30;7.72;;;2.22;;
29916;SDS011;16786;49.466;11.068;2024-02-23T07:07:57;6.90;;;2.22;;
29916;SDS011;16786;49.466;11.068;2024-02-23T07:10:24;11.07;;;3.38;;
29916;SDS011;16786;49.466;11.068;2024-02-23T07:12:52;6.82;;;2.67;;
29916;SDS011;16786;49.466;11.068;2024-02-23T07:15:24;6.05;;;2.47;;
29916;SDS011;16786;49.466;11.068;2024-02-23T07:17:52;4.70;;;2.25;;
29916;SDS011;16786;49.466;11.068;2024-02-23T07:20:19;6.10;;;2.80;;
29916;SDS011;16786;49.466;11.068;2024-02-23T07:22:46;8.38;;;2.10;;
29916;SDS011;16786;49.466;11.068;2024-02-23T07:25:17;4.88;;;2.65;;
29916;SDS011;16786;49.466;11.068;2024-02-23T07:27:44;5.13;;;2.72;;
29916;SDS011;16786;49.466;11.068;2024-02-23T07:30:12;3.35;;;1.92;;
29916;SDS011;16786;49.466;11.068;2024-02-23T07:32:39;5.05;;;2.30;;
29916;SDS011;16786;49.466;11.068;2024-02-23T07:35:07;9.25;;;2.13;;
29916;SDS011;16786;49.466;11.068;2024-02-23T07:37:34;7.22;;;2.28;;
29916;SDS011;16786;49.466;11.068;2024-02-23T07:40:02;5.35;;;1.90;;
29916;SDS011;16786;49.466;11.068;2024-02-23T07:42:31;8.30;;;2.20;;
29916;SDS011;16786;49.466;11.068;2024-02-23T07:44:58;6.50;;;2.25;;
29916;SDS011;16786;49.466;11.068;2024-02-23T07:47:25;2.67;;;1.80;;
29916;SDS011;16786;49.466;11.068;2024-02-23T07:49:56;5.38;;;1.90;;
29916;SDS011;16786;49.466;11.068;2024-02-23T07:52:24;4.75;;;2.15;;
29916;SDS011;16786;49.466;11.068;2024-02-23T07:54:52;5.15;;;2.10;;
29916;SDS011;16786;49.466;11.068;2024-02-23T07:57:19;10.32;;;4.80;;
29916;SDS011;16786;49.466;11.068;2024-02-23T07:59:46;6.72;;;2.58;;
29916;SDS011;16786;49.466;11.068;2024-02-23T08:02:14;3.70;;;1.75;;
29916;SDS011;16786;49.466;11.068;2024-02-23T08:04:41;5.38;;;2.10;;
29916;SDS011;16786;49.466;11.068;2024-02-23T08:07:09;3.75;;;2.10;;
29916;SDS011;16786;49.466;11.068;2024-02-23T08:09:36;3.40;;;2.03;;
29916;SDS011;16786;49.466;11.068;2024-02-23T08:12:03;3.58;;;1.90;;
29916;SDS011;16786;49.466;11.068;2024-02-23T08:14:31;3.30;;;1.80;;
29916;SDS011;16786;49.466;11.068;2024-02-23T08:16:59;6.07;;;1.95;;
29916;SDS011;16786;49.466;11.068;2024-02-23T08:19:26;2.92;;;1.85;;
29916;SDS011;16786;49.466;11.068;2024-02-23T08:21:53;5.57;;;2.10;;
29916;SDS011;16786;49.466;11.068;2024-02-23T08:24:20;4.75;;;2.08;;
29916;SDS011;16786;49.466;11.068;2024-02-23T08:26:47;3.08;;;1.75;;
29916;SDS011;16786;49.466;11.068;2024-02-23T08:29:14;6.32;;;2.20;;
29916;SDS011;16786;49.466;11.068;2024-02-23T08:31:41;7.95;;;2.72;;
29916;SDS011;16786;49.466;11.068;2024-02-23T08:34:08;6.72;;;1.90;;
29916;SDS011;16786;49.466;11.068;2024-02-23T08:36:35;5.22;;;2.05;;
29916;SDS011;16786;49.466;11.068;2024-02-23T08:39:03;4.50;;;1.88;;
29916;SDS011;16786;49.466;11.068;2024-02-23T08:41:30;2.92;;;1.88;;
29916;SDS011;16786;49.466;11.068;2024-02-23T08:43:57;3.90;;;2.00;;
29916;SDS011;16786;49.466;11.068;2024-02-23T08:46:25;3.33;;;1.98;;
29916;SDS011;16786;49.466;11.068;2024-02-23T08:48:52;3.53;;;1.70;;
29916;SDS011;16786;49.466;11.068;2024-02-23T08:51:19;6.57;;;2.15;;
29916;SDS011;16786;49.466;11.068;2024-02-23T08:53:45;4.45;;;2.28;;
29916;SDS011;16786;49.466;11.068;2024-02-23T08:56:13;4.70;;;2.58;;
29916;SDS011;16786;49.466;11.068;2024-02-23T08:58:42;4.28;;;2.05;;
29916;SDS011;16786;49.466;11.068;2024-02-23T09:01:09;6.40;;;2.20;;
29916;SDS011;16786;49.466;11.068;2024-02-23T09:03:36;6.90;;;1.83;;
29916;SDS011;16786;49.466;11.068;2024-02-23T09:06:03;3.45;;;1.75;;
29916;SDS011;16786;49.466;11.068;2024-02-23T09:08:31;5.00;;;2.05;;
29916;SDS011;16786;49.466;11.068;2024-02-23T09:10:58;5.13;;;2.03;;
29916;SDS011;16786;49.466;11.068;2024-02-23T09:13:25;2.85;;;2.00;;
29916;SDS011;16786;49.466;11.068;2024-02-23T09:15:53;4.05;;;1.77;;
29916;SDS011;16786;49.466;11.068;2024-02-23T09:18:20;4.82;;;1.75;;
29916;SDS011;16786;49.466;11.068;2024-02-23T09:20:48;5.72;;;1.80;;
29916;SDS011;16786;49.466;11.068;2024-02-23T09:23:15;3.55;;;1.98;;
29916;SDS011;16786;49.466;11.068;2024-02-23T09:25:42;4.68;;;2.25;;
29916;SDS011;16786;49.466;11.068;2024-02-23T09:28:10;5.72;;;2.10;;
29916;SDS011;16786;49.466;11.068;2024-02-23T09:30:38;2.13;;;1.63;;
29916;SDS011;16786;49.466;11.068;2024-02-23T09:33:05;3.45;;;2.20;;
29916;SDS011;16786;49.466;11.068;2024-02-23T09:35:32;4.30;;;1.90;;
29916;SDS011;16786;49.466;11.068;2024-02-23T09:37:59;3.65;;;1.90;;
29916;SDS011;16786;49.466;11.068;2024-02-23T09:40:26;3.88;;;2.00;;
29916;SDS011;16786;49.466;11.068;2024-02-23T09:42:56;5.97;;;2.10;;
29916;SDS011;16786;49.466;11.068;2024-02-23T09:45:25;7.25;;;2.35;;
29916;SDS011;16786;49.466;11.068;2024-02-23T09:47:53;5.43;;;1.95;;
29916;SDS011;16786;49.466;11.068;2024-02-23T09:50:22;3.95;;;2.03;;
29916;SDS011;16786;49.466;11.068;2024-02-23T09:52:50;4.68;;;2.20;;
29916;SDS011;16786;49.466;11.068;2024-02-23T09:55:18;4.47;;;2.00;;
29916;SDS011;16786;49.466;11.068;2024-02-23T09:57:45;6.93;;;3.38;;
29916;SDS011;16786;49.466;11.068;2024-02-23T10:00:15;5.18;;;2.20;;
29916;SDS011;16786;49.466;11.068;2024-02-23T10:02:44;4.10;;;1.80;;
29916;SDS011;16786;49.466;11.068;2024-02-23T10:05:11;3.35;;;1.73;;
29916;SDS011;16786;49.466;11.068;2024-02-23T10:07:40;3.25;;;2.00;;
29916;SDS011;16786;49.466;11.068;2024-02-23T10:10:08;3.88;;;1.73;;
29916;SDS011;16786;49.466;11.068;2024-02-23T10:12:37;3.80;;;2.20;;
29916;SDS011;16786;49.466;11.068;2024-02-23T10:15:04;4.85;;;2.00;;
29916;SDS011;16786;49.466;11.068;2024-02-23T10:17:32;4.78;;;2.13;;
29916;SDS011;16786;49.466;11.068;2024-02-23T10:20:02;5.35;;;2.22;;
29916;SDS011;16786;49.466;11.068;2024-02-23T10:22:32;2.75;;;1.90;;
29916;SDS011;16786;49.466;11.068;2024-02-23T10:24:59;5.90;;;2.67;;
29916;SDS011;16786;49.466;11.068;2024-02-23T10:27:26;3.40;;;2.00;;
29916;SDS011;16786;49.466;11.068;2024-02-23T10:29:54;4.03;;;1.98;;
29916;SDS011;16786;49.466;11.068;2024-02-23T10:32:21;4.80;;;2.30;;
29916;SDS011;16786;49.466;11.068;2024-02-23T10:34:50;6.35;;;2.05;;
29916;SDS011;16786;49.466;11.068;2024-02-23T10:37:22;7.93;;;2.40;;
29916;SDS011;16786;49.466;11.068;2024-02-23T10:39:50;5.30;;;2.20;;
29916;SDS011;16786;49.466;11.068;2024-02-23T10:42:23;5.07;;;2.30;;
29916;SDS011;16786;49.466;11.068;2024-02-23T10:44:54;5.25;;;2.28;;
29916;SDS011;16786;49.466;11.068;2024-02-23T10:47:23;5.30;;;2.10;;
29916;SDS011;16786;49.466;11.068;2024-02-23T10:49:50;4.80;;;2.17;;
29916;SDS011;16786;49.466;11.068;2024-02-23T10:52:18;6.28;;;2.65;;
29916;SDS011;16786;49.466;11.068;2024-02-23T10:54:48;4.15;;;2.60;;
29916;SDS011;16786;49.466;11.068;2024-02-23T10:57:17;3.08;;;2.00;;
29916;SDS011;16786;49.466;11.068;2024-02-23T10:59:46;4.70;;;2.15;;
29916;SDS011;16786;49.466;11.068;2024-02-23T11:02:14;4.00;;;2.10;;
29916;SDS011;16786;49.466;11.068;2024-02-23T11:04:45;4.05;;;1.95;;
29916;SDS011;16786;49.466;11.068;2024-02-23T11:07:20;5.28;;;2.45;;
29916;SDS011;16786;49.466;11.068;2024-02-23T11:10:00;5.50;;;2.30;;
29916;SDS011;16786;49.466;11.068;2024-02-23T11:12:30;6.22;;;2.25;;
29916;SDS011;16786;49.466;11.068;2024-02-23T11:14:58;7.25;;;3.75;;
29916;SDS011;16786;49.466;11.068;2024-02-23T11:17:27;5.32;;;2.25;;
29916;SDS011;16786;49.466;11.068;2024-02-23T11:20:02;5.40;;;2.88;;
29916;SDS011;16786;49.466;11.068;2024-02-23T11:22:31;3.55;;;2.20;;
29916;SDS011;16786;49.466;11.068;2024-02-23T11:25:05;4.07;;;2.17;;
29916;SDS011;16786;49.466;11.068;2024-02-23T11:27:35;4.30;;;2.20;;
29916;SDS011;16786;49.466;11.068;2024-02-23T11:30:07;4.10;;;2.15;;
29916;SDS011;16786;49.466;11.068;2024-02-23T11:32:40;5.38;;;2.22;;
29916;SDS011;16786;49.466;11.068;2024-02-23T11:35:10;5.18;;;2.40;;
29916;SDS011;16786;49.466;11.068;2024-02-23T11:37:54;3.15;;;2.03;;
29916;SDS011;16786;49.466;11.068;2024-02-23T11:40:29;2.47;;;1.98;;
29916;SDS011;16786;49.466;11.068;2024-02-23T11:42:57;2.63;;;1.98;;
29916;SDS011;16786;49.466;11.068;2024-02-23T11:45:28;6.72;;;2.45;;
29916;SDS011;16786;49.466;11.068;2024-02-23T11:47:55;4.72;;;2.47;;
29916;SDS011;16786;49.466;11.068;2024-02-23T11:50:22;6.10;;;2.20;;
29916;SDS011;16786;49.466;11.068;2024-02-23T11:52:49;3.92;;;2.30;;
29916;SDS011;16786;49.466;11.068;2024-02-23T11:55:20;4.03;;;2.10;;
29916;SDS011;16786;49.466;11.068;2024-02-23T11:57:49;4.30;;;2.13;;
29916;SDS011;16786;49.466;11.068;2024-02-23T12:00:27;4.60;;;2.20;;
29916;SDS011;16786;49.466;11.068;2024-02-23T12:02:56;5.50;;;2.30;;
29916;SDS011;16786;49.466;11.068;2024-02-23T12:05:23;5.60;;;2.70;;
29916;SDS011;16786;49.466;11.068;2024-02-23T12:07:50;5.47;;;2.47;;
29916;SDS011;16786;49.466;11.068;2024-02-23T12:10:17;3.38;;;2.45;;
29916;SDS011;16786;49.466;11.068;2024-02-23T12:12:44;4.20;;;2.38;;
29916;SDS011;16786;49.466;11.068;2024-02-23T12:15:11;8.13;;;2.28;;
29916;SDS011;16786;49.466;11.068;2024-02-23T12:17:46;4.57;;;2.15;;
29916;SDS011;16786;49.466;11.068;2024-02-23T12:20:14;4.05;;;2.22;;
29916;SDS011;16786;49.466;11.068;2024-02-23T12:22:42;3.55;;;2.38;;
29916;SDS011;16786;49.466;11.068;2024-02-23T12:25:09;7.18;;;2.58;;
29916;SDS011;16786;49.466;11.068;2024-02-23T12:27:39;4.07;;;2.50;;
29916;SDS011;16786;49.466;11.068;2024-02-23T12:30:12;4.63;;;2.55;;
29916;SDS011;16786;49.466;11.068;2024-02-23T12:32:41;4.85;;;2.67;;
29916;SDS011;16786;49.466;11.068;2024-02-23T12:35:10;4.88;;;2.20;;
29916;SDS011;16786;49.466;11.068;2024-02-23T12:37:40;4.70;;;2.42;;
29916;SDS011;16786;49.466;11.068;2024-02-23T12:40:11;3.30;;;1.98;;
29916;SDS011;16786;49.466;11.068;2024-02-23T12:42:38;6.03;;;2.38;;
29916;SDS011;16786;49.466;11.068;2024-02-23T12:45:06;4.10;;;2.00;;
29916;SDS011;16786;49.466;11.068;2024-02-23T12:47:33;3.53;;;2.10;;
29916;SDS011;16786;49.466;11.068;2024-02-23T12:50:00;3.08;;;2.08;;
29916;SDS011;16786;49.466;11.068;2024-02-23T12:52:27;3.08;;;2.10;;
29916;SDS011;16786;49.466;11.068;2024-02-23T12:54:54;2.70;;;1.90;;
29916;SDS011;16786;49.466;11.068;2024-02-23T12:57:21;3.80;;;2.10;;
29916;SDS011;16786;49.466;11.068;2024-02-23T12:59:48;3.88;;;1.98;;
29916;SDS011;16786;49.466;11.068;2024-02-23T13:02:15;4.25;;;1.92;;
29916;SDS011;16786;49.466;11.068;2024-02-23T13:04:42;2.78;;;1.95;;
29916;SDS011;16786;49.466;11.068;2024-02-23T13:07:17;2.60;;;1.92;;
29916;SDS011;16786;49.466;11.068;2024-02-23T13:09:44;6.32;;;2.10;;
29916;SDS011;16786;49.466;11.068;2024-02-23T13:12:11;5.05;;;2.22;;
29916;SDS011;16786;49.466;11.068;2024-02-23T13:14:38;5.63;;;2.25;;
29916;SDS011;16786;49.466;11.068;2024-02-23T13:17:05;3.40;;;2.00;;
29916;SDS011;16786;49.466;11.068;2024-02-23T13:19:32;2.50;;;1.70;;
29916;SDS011;16786;49.466;11.068;2024-02-23T13:22:00;3.20;;;2.33;;
29916;SDS011;16786;49.466;11.068;2024-02-23T13:24:27;3.70;;;2.00;;
29916;SDS011;16786;49.466;11.068;2024-02-23T13:26:54;3.40;;;2.00;;
29916;SDS011;16786;49.466;11.068;2024-02-23T13:29:21;2.60;;;1.90;;
29916;SDS011;16786;49.466;11.068;2024-02-23T13:31:48;3.53;;;2.00;;
29916;SDS011;16786;49.466;11.068;2024-02-23T13:34:15;3.88;;;2.05;;
29916;SDS011;16786;49.466;11.068;2024-02-23T13:36:44;3.50;;;2.10;;
29916;SDS011;16786;49.466;11.068;2024-02-23T13:39:11;4.10;;;2.10;;
29916;SDS011;16786;49.466;11.068;2024-02-23T13:41:38;4.10;;;2.17;;
29916;SDS011;16786;49.466;11.068;2024-02-23T13:44:06;3.92;;;2.03;;
29916;SDS011;16786;49.466;11.068;2024-02-23T13:46:37;5.00;;;2.20;;
29916;SDS011;16786;49.466;11.068;2024-02-23T13:49:06;3.30;;;2.20;;
29916;SDS011;16786;49.466;11.068;2024-02-23T13:51:34;6.85;;;2.10;;
29916;SDS011;16786;49.466;11.068;2024-02-23T13:54:01;2.33;;;1.90;;
29916;SDS011;16786;49.466;11.068;2024-02-23T13:56:29;3.53;;;2.20;;
29916;SDS011;16786;49.466;11.068;2024-02-23T13:58:59;5.50;;;2.20;;
29916;SDS011;16786;49.466;11.068;2024-02-23T14:01:26;3.25;;;2.05;;
29916;SDS011;16786;49.466;11.068;2024-02-23T14:03:53;4.05;;;2.38;;
29916;SDS011;16786;49.466;11.068;2024-02-23T14:06:20;5.35;;;2.30;;
29916;SDS011;16786;49.466;11.068;2024-02-23T14:08:47;2.72;;;1.98;;
29916;SDS011;16786;49.466;11.068;2024-02-23T14:11:14;4.68;;;2.13;;
29916;SDS011;16786;49.466;11.068;2024-02-23T14:13:42;3.22;;;2.08;;
29916;SDS011;16786;49.466;11.068;2024-02-23T14:16:13;2.42;;;1.98;;
29916;SDS011;16786;49.466;11.068;2024-02-23T14:18:40;2.58;;;2.00;;
29916;SDS011;16786;49.466;11.068;2024-02-23T14:21:08;5.15;;;2.50;;
29916;SDS011;16786;49.466;11.068;2024-02-23T14:23:36;3.67;;;2.30;;
29916;SDS011;16786;49.466;11.068;2024-02-23T14:26:03;3.15;;;2.20;;
29916;SDS011;16786;49.466;11.068;2024-02-23T14:28:31;3.13;;;2.10;;
29916;SDS011;16786;49.466;11.068;2024-02-23T14:30:58;4.13;;;2.40;;
29916;SDS011;16786;49.466;11.068;2024-02-23T14:33:25;5.20;;;1.90;;
29916;SDS011;16786;49.466;11.068;2024-02-23T14:35:52;4.25;;;2.20;;
29916;SDS011;16786;49.466;11.068;2024-02-23T14:38:19;4.95;;;2.35;;